ARG1814 SABE-SAVY
Flight info
| Callsign | ARG1814 |
|---|---|
| Flight time | 1h 40m |
| Altitude | 38000 |
| Route | PTA8 GBE UT694 IREMO UP664 VIE DCT MIGUS |
| Aircraft | B38M/M-MSDFGHILORVW/SB1 |
Departure
| Time | 2026-04-24 20:32 |
|---|---|
| Airport | Aeroparque Jorge Newbery (SABE) |
Arrival
| Time | 2026-04-24 22:12 |
|---|---|
| Airport | El Tehuelche Airport (SAVY) |
| Time | Latitude | Longitude | Altitude | Speed | Heading |
|---|---|---|---|---|---|
| 2026-04-24 20:00 | -34.55783 | -58.41291 | 28 ft | 0 kts | 36° |
| 2026-04-24 20:22 | -34.55789 | -58.41297 | 28 ft | 4 kts | 36° |
| 2026-04-24 20:22 | -34.55811 | -58.41312 | 28 ft | 4 kts | 6° |
| 2026-04-24 20:22 | -34.55824 | -58.41305 | 28 ft | 3 kts | 301° |
| 2026-04-24 20:23 | -34.55838 | -58.41278 | 28 ft | 4 kts | 301° |
| 2026-04-24 20:23 | -34.55852 | -58.41250 | 28 ft | 4 kts | 301° |
| 2026-04-24 20:23 | -34.55859 | -58.41235 | 28 ft | 0 kts | 301° |
| 2026-04-24 20:26 | -34.55855 | -58.41248 | 28 ft | 4 kts | 283° |
| 2026-04-24 20:27 | -34.55885 | -58.41296 | 28 ft | 12 kts | 212° |
| 2026-04-24 20:27 | -34.55892 | -58.41381 | 28 ft | 12 kts | 297° |
| 2026-04-24 20:27 | -34.55848 | -58.41483 | 28 ft | 15 kts | 297° |
| 2026-04-24 20:27 | -34.55800 | -58.41599 | 28 ft | 14 kts | 297° |
| 2026-04-24 20:28 | -34.55758 | -58.41698 | 28 ft | 12 kts | 296° |
| 2026-04-24 20:28 | -34.55713 | -58.41798 | 28 ft | 15 kts | 304° |
| 2026-04-24 20:28 | -34.55661 | -58.41890 | 28 ft | 14 kts | 303° |
| 2026-04-24 20:28 | -34.55606 | -58.41991 | 28 ft | 15 kts | 304° |
| 2026-04-24 20:29 | -34.55568 | -58.42056 | 28 ft | 14 kts | 307° |
| 2026-04-24 20:29 | -34.55495 | -58.42174 | 28 ft | 14 kts | 307° |
| 2026-04-24 20:29 | -34.55445 | -58.42253 | 28 ft | 11 kts | 307° |
| 2026-04-24 20:29 | -34.55407 | -58.42314 | 28 ft | 9 kts | 307° |
| 2026-04-24 20:30 | -34.55369 | -58.42390 | 28 ft | 12 kts | 284° |
| 2026-04-24 20:30 | -34.55368 | -58.42489 | 28 ft | 10 kts | 232° |
| 2026-04-24 20:30 | -34.55403 | -58.42508 | 28 ft | 3 kts | 155° |
| 2026-04-24 20:30 | -34.55414 | -58.42494 | 28 ft | 0 kts | 124° |
| 2026-04-24 20:31 | -34.55434 | -58.42456 | 28 ft | 29 kts | 124° |
| 2026-04-24 20:31 | -34.55694 | -58.41992 | 28 ft | 102 kts | 124° |
| 2026-04-24 20:31 | -34.56202 | -58.41081 | 45 ft | 154 kts | 122° |
| 2026-04-24 20:31 | -34.56819 | -58.39944 | 543 ft | 165 kts | 122° |
| 2026-04-24 20:32 | -34.57441 | -58.38761 | 1247 ft | 168 kts | 120° |
| 2026-04-24 20:32 | -34.57910 | -58.37376 | 1633 ft | 188 kts | 93° |
| 2026-04-24 20:32 | -34.57611 | -58.35781 | 2109 ft | 205 kts | 57° |
| 2026-04-24 20:32 | -34.56591 | -58.34431 | 2527 ft | 229 kts | 35° |
| 2026-04-24 20:33 | -34.55176 | -58.33374 | 3149 ft | 244 kts | 29° |
| 2026-04-24 20:33 | -34.53694 | -58.32310 | 3962 ft | 253 kts | 35° |
| 2026-04-24 20:33 | -34.52844 | -58.31323 | 4416 ft | 262 kts | 53° |
| 2026-04-24 20:33 | -34.52365 | -58.28497 | 4811 ft | 266 kts | 103° |
| 2026-04-24 20:34 | -34.53162 | -58.26481 | 5444 ft | 275 kts | 126° |
| 2026-04-24 20:34 | -34.54634 | -58.24940 | 6251 ft | 281 kts | 156° |
| 2026-04-24 20:34 | -34.56554 | -58.24491 | 7000 ft | 282 kts | 184° |
| 2026-04-24 20:34 | -34.58509 | -58.24865 | 7776 ft | 286 kts | 195° |
| 2026-04-24 20:35 | -34.60446 | -58.25356 | 8718 ft | 287 kts | 191° |
| 2026-04-24 20:35 | -34.62448 | -58.25723 | 9503 ft | 293 kts | 190° |
| 2026-04-24 20:35 | -34.64475 | -58.26090 | 10318 ft | 297 kts | 191° |
| 2026-04-24 20:35 | -34.65852 | -58.26336 | 10616 ft | 309 kts | 190° |
| 2026-04-24 20:36 | -34.68772 | -58.26838 | 11123 ft | 332 kts | 190° |
| 2026-04-24 20:36 | -34.71094 | -58.27240 | 11691 ft | 340 kts | 191° |
| 2026-04-24 20:36 | -34.73439 | -58.27658 | 12514 ft | 342 kts | 191° |
| 2026-04-24 20:36 | -34.75030 | -58.27944 | 13016 ft | 344 kts | 191° |
| 2026-04-24 20:37 | -34.77411 | -58.28376 | 13795 ft | 347 kts | 191° |
| 2026-04-24 20:37 | -34.79790 | -58.28810 | 14495 ft | 350 kts | 192° |
| 2026-04-24 20:37 | -34.82992 | -58.29396 | 15355 ft | 355 kts | 192° |
| 2026-04-24 20:37 | -34.84654 | -58.29700 | 15807 ft | 358 kts | 192° |
| 2026-04-24 20:38 | -34.87100 | -58.30147 | 16439 ft | 362 kts | 192° |
| 2026-04-24 20:38 | -34.89634 | -58.30612 | 17076 ft | 366 kts | 193° |
| 2026-04-24 20:38 | -34.92176 | -58.31078 | 17705 ft | 370 kts | 193° |
| 2026-04-24 20:38 | -34.94738 | -58.31547 | 18318 ft | 374 kts | 193° |
| 2026-04-24 20:39 | -34.97319 | -58.32020 | 18845 ft | 377 kts | 193° |
| 2026-04-24 20:39 | -34.99925 | -58.32498 | 19395 ft | 380 kts | 194° |
| 2026-04-24 20:39 | -35.02512 | -58.32974 | 19925 ft | 382 kts | 194° |
| 2026-04-24 20:39 | -35.05158 | -58.33460 | 20468 ft | 385 kts | 194° |
| 2026-04-24 20:40 | -35.07816 | -58.33949 | 21003 ft | 388 kts | 194° |
| 2026-04-24 20:40 | -35.10488 | -58.34442 | 21537 ft | 390 kts | 194° |
| 2026-04-24 20:40 | -35.13185 | -58.34940 | 22074 ft | 393 kts | 194° |
| 2026-04-24 20:40 | -35.15887 | -58.35438 | 22629 ft | 395 kts | 194° |
| 2026-04-24 20:41 | -35.18622 | -58.35943 | 23163 ft | 398 kts | 194° |
| 2026-04-24 20:41 | -35.21367 | -58.36451 | 23680 ft | 401 kts | 194° |
| 2026-04-24 20:41 | -35.24127 | -58.36962 | 24105 ft | 403 kts | 194° |
| 2026-04-24 20:41 | -35.26912 | -58.37478 | 24550 ft | 406 kts | 194° |
| 2026-04-24 20:42 | -35.29705 | -58.37996 | 25001 ft | 408 kts | 194° |
| 2026-04-24 20:42 | -35.32486 | -58.38512 | 25425 ft | 410 kts | 194° |
| 2026-04-24 20:42 | -35.35323 | -58.39039 | 25854 ft | 412 kts | 194° |
| 2026-04-24 20:42 | -35.38168 | -58.39568 | 26290 ft | 415 kts | 194° |
| 2026-04-24 20:43 | -35.41036 | -58.40102 | 26718 ft | 417 kts | 194° |
| 2026-04-24 20:43 | -35.43910 | -58.40637 | 27115 ft | 419 kts | 194° |
| 2026-04-24 20:43 | -35.46802 | -58.41176 | 27522 ft | 421 kts | 194° |
| 2026-04-24 20:43 | -35.49707 | -58.41718 | 27916 ft | 424 kts | 195° |
| 2026-04-24 20:44 | -35.52631 | -58.42264 | 28299 ft | 426 kts | 195° |
| 2026-04-24 20:44 | -35.55564 | -58.42812 | 28684 ft | 428 kts | 195° |
| 2026-04-24 20:44 | -35.58520 | -58.43365 | 29055 ft | 430 kts | 195° |
| 2026-04-24 20:44 | -35.61490 | -58.43921 | 29445 ft | 433 kts | 195° |
| 2026-04-24 20:45 | -35.64472 | -58.44481 | 29791 ft | 435 kts | 195° |
| 2026-04-24 20:45 | -35.67473 | -58.45043 | 30144 ft | 437 kts | 195° |
| 2026-04-24 20:45 | -35.70469 | -58.45606 | 30440 ft | 439 kts | 195° |
| 2026-04-24 20:45 | -35.73491 | -58.46222 | 30731 ft | 438 kts | 199° |
| 2026-04-24 20:46 | -35.76379 | -58.47305 | 30996 ft | 432 kts | 208° |
| 2026-04-24 20:46 | -35.79127 | -58.48789 | 31260 ft | 432 kts | 212° |
| 2026-04-24 20:46 | -35.81647 | -58.50741 | 31527 ft | 424 kts | 224° |
| 2026-04-24 20:46 | -35.83873 | -58.53121 | 31813 ft | 425 kts | 225° |
| 2026-04-24 20:47 | -35.86335 | -58.55182 | 32194 ft | 431 kts | 216° |
| 2026-04-24 20:47 | -35.88858 | -58.57063 | 32562 ft | 429 kts | 217° |
| 2026-04-24 20:47 | -35.91392 | -58.59007 | 32951 ft | 428 kts | 218° |
| 2026-04-24 20:47 | -35.93915 | -58.60949 | 33361 ft | 427 kts | 218° |
| 2026-04-24 20:48 | -35.96434 | -58.62891 | 33757 ft | 426 kts | 218° |
| 2026-04-24 20:48 | -35.98941 | -58.64827 | 34136 ft | 425 kts | 218° |
| 2026-04-24 20:48 | -36.01443 | -58.66759 | 34447 ft | 424 kts | 218° |
| 2026-04-24 20:48 | -36.03942 | -58.68691 | 34731 ft | 424 kts | 218° |
| 2026-04-24 20:49 | -36.06448 | -58.70630 | 35007 ft | 424 kts | 218° |
| 2026-04-24 20:49 | -36.08946 | -58.72564 | 35275 ft | 424 kts | 218° |
| 2026-04-24 20:49 | -36.11445 | -58.74501 | 35561 ft | 424 kts | 218° |
| 2026-04-24 20:49 | -36.13944 | -58.76439 | 35829 ft | 424 kts | 219° |
| 2026-04-24 20:50 | -36.16448 | -58.78381 | 36077 ft | 424 kts | 219° |
| 2026-04-24 20:50 | -36.18946 | -58.80321 | 36324 ft | 424 kts | 219° |
| 2026-04-24 20:50 | -36.21447 | -58.82265 | 36570 ft | 424 kts | 219° |
| 2026-04-24 20:50 | -36.23944 | -58.84207 | 36803 ft | 424 kts | 219° |
| 2026-04-24 20:51 | -36.26440 | -58.86149 | 37037 ft | 424 kts | 219° |
| 2026-04-24 20:51 | -36.28936 | -58.88094 | 37258 ft | 424 kts | 219° |
| 2026-04-24 20:51 | -36.31435 | -58.90042 | 37475 ft | 424 kts | 219° |
| 2026-04-24 20:51 | -36.33902 | -58.91966 | 37682 ft | 424 kts | 220° |
| 2026-04-24 20:52 | -36.36395 | -58.93913 | 37887 ft | 424 kts | 220° |
| 2026-04-24 20:52 | -36.38899 | -58.95870 | 38078 ft | 424 kts | 220° |
| 2026-04-24 20:52 | -36.43889 | -58.99772 | 38032 ft | 422 kts | 220° |
| 2026-04-24 20:53 | -36.48867 | -59.03673 | 38068 ft | 423 kts | 220° |
| 2026-04-24 20:53 | -36.53842 | -59.07576 | 38035 ft | 423 kts | 220° |
| 2026-04-24 20:54 | -36.58815 | -59.11484 | 38038 ft | 423 kts | 220° |
| 2026-04-24 20:54 | -36.63792 | -59.15402 | 38040 ft | 423 kts | 220° |
| 2026-04-24 20:55 | -36.68762 | -59.19320 | 38048 ft | 423 kts | 220° |
| 2026-04-24 20:55 | -36.73736 | -59.23247 | 38041 ft | 423 kts | 220° |
| 2026-04-24 20:56 | -36.78708 | -59.27178 | 38039 ft | 423 kts | 220° |
| 2026-04-24 20:56 | -36.83643 | -59.31087 | 38040 ft | 423 kts | 220° |
| 2026-04-24 20:57 | -36.88614 | -59.35030 | 38039 ft | 422 kts | 220° |
| 2026-04-24 20:57 | -36.93573 | -59.38970 | 38036 ft | 423 kts | 220° |
| 2026-04-24 20:58 | -36.98542 | -59.42923 | 38031 ft | 422 kts | 220° |
| 2026-04-24 20:58 | -37.03501 | -59.46876 | 38030 ft | 423 kts | 220° |
| 2026-04-24 20:59 | -37.08458 | -59.50832 | 38028 ft | 422 kts | 220° |
| 2026-04-24 20:59 | -37.13388 | -59.54772 | 38027 ft | 422 kts | 220° |
| 2026-04-24 21:00 | -37.18318 | -59.58773 | 38033 ft | 421 kts | 222° |
| 2026-04-24 21:00 | -37.23170 | -59.62890 | 38037 ft | 420 kts | 222° |
| 2026-04-24 21:01 | -37.28013 | -59.66985 | 38030 ft | 420 kts | 221° |
| 2026-04-24 21:01 | -37.32858 | -59.71087 | 38024 ft | 420 kts | 221° |
| 2026-04-24 21:02 | -37.37699 | -59.75190 | 38025 ft | 420 kts | 222° |
| 2026-04-24 21:02 | -37.42545 | -59.79305 | 38023 ft | 420 kts | 222° |
| 2026-04-24 21:03 | -37.47392 | -59.83427 | 38063 ft | 420 kts | 222° |
| 2026-04-24 21:03 | -37.52226 | -59.87545 | 38026 ft | 419 kts | 222° |
| 2026-04-24 21:04 | -37.57058 | -59.91668 | 38025 ft | 419 kts | 222° |
| 2026-04-24 21:04 | -37.61886 | -59.95794 | 38024 ft | 419 kts | 222° |
| 2026-04-24 21:05 | -37.66717 | -59.99929 | 38021 ft | 419 kts | 222° |
| 2026-04-24 21:05 | -37.71538 | -60.04061 | 38021 ft | 419 kts | 222° |
| 2026-04-24 21:06 | -37.76363 | -60.08205 | 38046 ft | 419 kts | 222° |
| 2026-04-24 21:06 | -37.81157 | -60.12327 | 38022 ft | 419 kts | 222° |
| 2026-04-24 21:07 | -37.85985 | -60.16486 | 38014 ft | 419 kts | 222° |
| 2026-04-24 21:07 | -37.90807 | -60.20646 | 38016 ft | 419 kts | 222° |
| 2026-04-24 21:08 | -37.95624 | -60.24809 | 38015 ft | 419 kts | 222° |
| 2026-04-24 21:08 | -38.00443 | -60.28981 | 38015 ft | 419 kts | 222° |
| 2026-04-24 21:09 | -38.05259 | -60.33156 | 38021 ft | 419 kts | 222° |
| 2026-04-24 21:09 | -38.10076 | -60.37338 | 38016 ft | 419 kts | 222° |
| 2026-04-24 21:10 | -38.14866 | -60.41498 | 38014 ft | 420 kts | 221° |
| 2026-04-24 21:10 | -38.19738 | -60.45616 | 38015 ft | 420 kts | 221° |
| 2026-04-24 21:11 | -38.24607 | -60.49744 | 38021 ft | 420 kts | 221° |
| 2026-04-24 21:11 | -38.29472 | -60.53877 | 38033 ft | 420 kts | 221° |
| 2026-04-24 21:12 | -38.33514 | -60.57314 | 38025 ft | 420 kts | 221° |
| 2026-04-24 21:12 | -38.39202 | -60.62162 | 38021 ft | 421 kts | 221° |
| 2026-04-24 21:13 | -38.44065 | -60.66312 | 38018 ft | 420 kts | 221° |
| 2026-04-24 21:13 | -38.48925 | -60.70468 | 38021 ft | 420 kts | 221° |
| 2026-04-24 21:14 | -38.53779 | -60.74626 | 38022 ft | 420 kts | 221° |
| 2026-04-24 21:14 | -38.58635 | -60.78791 | 38036 ft | 419 kts | 221° |
| 2026-04-24 21:15 | -38.63444 | -60.82923 | 38027 ft | 419 kts | 221° |
| 2026-04-24 21:15 | -38.68282 | -60.87088 | 38029 ft | 419 kts | 221° |
| 2026-04-24 21:16 | -38.73118 | -60.91256 | 38031 ft | 419 kts | 221° |
| 2026-04-24 21:16 | -38.77954 | -60.95433 | 38031 ft | 419 kts | 222° |
| 2026-04-24 21:17 | -38.82786 | -60.99612 | 38062 ft | 419 kts | 221° |
| 2026-04-24 21:17 | -38.86789 | -61.03080 | 38039 ft | 417 kts | 221° |
| 2026-04-24 21:18 | -38.92400 | -61.07949 | 38037 ft | 416 kts | 221° |
| 2026-04-24 21:18 | -38.97198 | -61.12120 | 38042 ft | 416 kts | 221° |
| 2026-04-24 21:19 | -39.01993 | -61.16295 | 38032 ft | 416 kts | 221° |
| 2026-04-24 21:19 | -39.06785 | -61.20475 | 38032 ft | 416 kts | 221° |
| 2026-04-24 21:20 | -39.13970 | -61.26755 | 38035 ft | 416 kts | 221° |
| 2026-04-24 21:21 | -39.18760 | -61.30949 | 38037 ft | 416 kts | 221° |
| 2026-04-24 21:21 | -39.23545 | -61.35147 | 38045 ft | 416 kts | 221° |
| 2026-04-24 21:22 | -39.28339 | -61.39361 | 38042 ft | 417 kts | 221° |
| 2026-04-24 21:22 | -39.33134 | -61.43582 | 38039 ft | 417 kts | 221° |
| 2026-04-24 21:23 | -39.37919 | -61.47801 | 38049 ft | 418 kts | 221° |
| 2026-04-24 21:23 | -39.42720 | -61.52042 | 38043 ft | 418 kts | 222° |
| 2026-04-24 21:24 | -39.47495 | -61.56267 | 38046 ft | 418 kts | 222° |
| 2026-04-24 21:24 | -39.52297 | -61.60522 | 38045 ft | 418 kts | 222° |
| 2026-04-24 21:25 | -39.57094 | -61.64781 | 38045 ft | 418 kts | 222° |
| 2026-04-24 21:25 | -39.61895 | -61.69051 | 38046 ft | 418 kts | 222° |
| 2026-04-24 21:26 | -39.66693 | -61.73325 | 38053 ft | 418 kts | 222° |
| 2026-04-24 21:26 | -39.70679 | -61.76882 | 38051 ft | 418 kts | 222° |
| 2026-04-24 21:27 | -39.75473 | -61.81164 | 38044 ft | 418 kts | 222° |
| 2026-04-24 21:27 | -39.80263 | -61.85450 | 38051 ft | 418 kts | 222° |
| 2026-04-24 21:28 | -39.85061 | -61.89751 | 38055 ft | 418 kts | 222° |
| 2026-04-24 21:28 | -39.89574 | -61.94409 | 38049 ft | 412 kts | 227° |
| 2026-04-24 21:29 | -39.93984 | -61.99165 | 38063 ft | 412 kts | 226° |
| 2026-04-24 21:29 | -39.98417 | -62.03912 | 38055 ft | 412 kts | 226° |
| 2026-04-24 21:30 | -40.02848 | -62.08658 | 38054 ft | 412 kts | 226° |
| 2026-04-24 21:30 | -40.07272 | -62.13405 | 38053 ft | 412 kts | 226° |
| 2026-04-24 21:31 | -40.11671 | -62.18133 | 38066 ft | 412 kts | 226° |
| 2026-04-24 21:31 | -40.16096 | -62.22897 | 38094 ft | 412 kts | 226° |
| 2026-04-24 21:32 | -40.20513 | -62.27660 | 38067 ft | 413 kts | 226° |
| 2026-04-24 21:32 | -40.24953 | -62.32457 | 38066 ft | 413 kts | 226° |
| 2026-04-24 21:33 | -40.29376 | -62.37244 | 38066 ft | 413 kts | 226° |
| 2026-04-24 21:33 | -40.33801 | -62.42041 | 38069 ft | 413 kts | 226° |
| 2026-04-24 21:34 | -40.38230 | -62.46852 | 38069 ft | 413 kts | 226° |
| 2026-04-24 21:34 | -40.42651 | -62.51662 | 38095 ft | 413 kts | 226° |
| 2026-04-24 21:35 | -40.47077 | -62.56486 | 38078 ft | 414 kts | 226° |
| 2026-04-24 21:35 | -40.51516 | -62.61334 | 38076 ft | 415 kts | 226° |
| 2026-04-24 21:36 | -40.55957 | -62.66190 | 38071 ft | 415 kts | 226° |
| 2026-04-24 21:36 | -40.60388 | -62.71047 | 38071 ft | 415 kts | 226° |
| 2026-04-24 21:37 | -40.64824 | -62.75915 | 38084 ft | 415 kts | 226° |
| 2026-04-24 21:37 | -40.69254 | -62.80788 | 38120 ft | 415 kts | 226° |
| 2026-04-24 21:38 | -40.73669 | -62.85651 | 38092 ft | 413 kts | 226° |
| 2026-04-24 21:38 | -40.78037 | -62.90472 | 38076 ft | 412 kts | 226° |
| 2026-04-24 21:39 | -40.82433 | -62.95329 | 38073 ft | 412 kts | 226° |
| 2026-04-24 21:39 | -40.86861 | -63.00146 | 38062 ft | 416 kts | 221° |
| 2026-04-24 21:40 | -40.91664 | -63.04435 | 38072 ft | 417 kts | 221° |
| 2026-04-24 21:40 | -40.96430 | -63.08810 | 38113 ft | 417 kts | 222° |
| 2026-04-24 21:41 | -41.01170 | -63.13189 | 38090 ft | 415 kts | 222° |
| 2026-04-24 21:41 | -41.05898 | -63.17567 | 37245 ft | 414 kts | 222° |
| 2026-04-24 21:41 | -41.08249 | -63.19747 | 36751 ft | 409 kts | 222° |
| 2026-04-24 21:42 | -41.10553 | -63.21885 | 36439 ft | 400 kts | 222° |
| 2026-04-24 21:42 | -41.12815 | -63.23986 | 36026 ft | 394 kts | 222° |
| 2026-04-24 21:42 | -41.15055 | -63.26069 | 35506 ft | 392 kts | 222° |
| 2026-04-24 21:42 | -41.17282 | -63.28141 | 34967 ft | 390 kts | 222° |
| 2026-04-24 21:43 | -41.19500 | -63.30206 | 34475 ft | 388 kts | 222° |
| 2026-04-24 21:43 | -41.21697 | -63.32255 | 34009 ft | 385 kts | 223° |
| 2026-04-24 21:43 | -41.23885 | -63.34296 | 33440 ft | 383 kts | 223° |
| 2026-04-24 21:43 | -41.26056 | -63.36322 | 32921 ft | 379 kts | 223° |
| 2026-04-24 21:44 | -41.28199 | -63.38325 | 32461 ft | 375 kts | 223° |
| 2026-04-24 21:44 | -41.30293 | -63.40283 | 32018 ft | 371 kts | 223° |
| 2026-04-24 21:44 | -41.32398 | -63.42253 | 31563 ft | 368 kts | 223° |
| 2026-04-24 21:44 | -41.34482 | -63.44205 | 31154 ft | 364 kts | 223° |
| 2026-04-24 21:45 | -41.36543 | -63.46138 | 30692 ft | 361 kts | 223° |
| 2026-04-24 21:45 | -41.38593 | -63.48060 | 30226 ft | 359 kts | 223° |
| 2026-04-24 21:45 | -41.40623 | -63.49966 | 29720 ft | 356 kts | 223° |
| 2026-04-24 21:45 | -41.42644 | -63.51865 | 29256 ft | 352 kts | 223° |
| 2026-04-24 21:46 | -41.44635 | -63.53737 | 28835 ft | 348 kts | 223° |
| 2026-04-24 21:46 | -41.46600 | -63.55587 | 28439 ft | 344 kts | 223° |
| 2026-04-24 21:46 | -41.48545 | -63.57418 | 28011 ft | 341 kts | 223° |
| 2026-04-24 21:46 | -41.50471 | -63.59233 | 27602 ft | 337 kts | 223° |
| 2026-04-24 21:47 | -41.52371 | -63.61025 | 27205 ft | 334 kts | 223° |
| 2026-04-24 21:47 | -41.53623 | -63.62206 | 26938 ft | 332 kts | 223° |
| 2026-04-24 21:47 | -41.56128 | -63.64572 | 26423 ft | 328 kts | 223° |
| 2026-04-24 21:47 | -41.57985 | -63.66328 | 26043 ft | 325 kts | 223° |
| 2026-04-24 21:48 | -41.59803 | -63.68047 | 25672 ft | 323 kts | 223° |
| 2026-04-24 21:48 | -41.61632 | -63.69778 | 25300 ft | 320 kts | 223° |
| 2026-04-24 21:48 | -41.63444 | -63.71495 | 24933 ft | 318 kts | 223° |
| 2026-04-24 21:48 | -41.65242 | -63.73199 | 24574 ft | 316 kts | 223° |
| 2026-04-24 21:49 | -41.67032 | -63.74897 | 24232 ft | 314 kts | 223° |
| 2026-04-24 21:49 | -41.68805 | -63.76580 | 23856 ft | 312 kts | 223° |
| 2026-04-24 21:49 | -41.70574 | -63.78260 | 23504 ft | 311 kts | 223° |
| 2026-04-24 21:49 | -41.72326 | -63.79926 | 23104 ft | 308 kts | 223° |
| 2026-04-24 21:50 | -41.74068 | -63.81583 | 22733 ft | 305 kts | 223° |
| 2026-04-24 21:50 | -41.75789 | -63.83221 | 22386 ft | 302 kts | 223° |
| 2026-04-24 21:50 | -41.77510 | -63.84860 | 22047 ft | 307 kts | 223° |
| 2026-04-24 21:50 | -41.79262 | -63.86530 | 21698 ft | 311 kts | 223° |
| 2026-04-24 21:51 | -41.81032 | -63.88218 | 21348 ft | 312 kts | 223° |
| 2026-04-24 21:51 | -41.82798 | -63.89903 | 21016 ft | 311 kts | 223° |
| 2026-04-24 21:51 | -41.84556 | -63.91582 | 20656 ft | 310 kts | 223° |
| 2026-04-24 21:51 | -41.86308 | -63.93257 | 20305 ft | 308 kts | 223° |
| 2026-04-24 21:52 | -41.88048 | -63.94921 | 19962 ft | 307 kts | 223° |
| 2026-04-24 21:52 | -41.89789 | -63.96586 | 19617 ft | 306 kts | 223° |
| 2026-04-24 21:52 | -41.91515 | -63.98239 | 19276 ft | 305 kts | 223° |
| 2026-04-24 21:52 | -41.93238 | -63.99891 | 18936 ft | 304 kts | 223° |
| 2026-04-24 21:53 | -41.94956 | -64.01539 | 18598 ft | 303 kts | 223° |
| 2026-04-24 21:53 | -41.96663 | -64.03176 | 18240 ft | 300 kts | 223° |
| 2026-04-24 21:53 | -41.98354 | -64.04801 | 17882 ft | 298 kts | 223° |
| 2026-04-24 21:53 | -42.00034 | -64.06414 | 17523 ft | 295 kts | 223° |
| 2026-04-24 21:54 | -42.01694 | -64.08010 | 17187 ft | 292 kts | 223° |
| 2026-04-24 21:54 | -42.03336 | -64.09590 | 16856 ft | 289 kts | 223° |
| 2026-04-24 21:54 | -42.04958 | -64.11151 | 16529 ft | 285 kts | 223° |
| 2026-04-24 21:54 | -42.06564 | -64.12699 | 16205 ft | 282 kts | 223° |
| 2026-04-24 21:55 | -42.08136 | -64.14214 | 15879 ft | 280 kts | 222° |
| 2026-04-24 21:55 | -42.09728 | -64.15750 | 15565 ft | 277 kts | 222° |
| 2026-04-24 21:55 | -42.11267 | -64.17235 | 15256 ft | 274 kts | 222° |
| 2026-04-24 21:55 | -42.12809 | -64.18725 | 14945 ft | 272 kts | 222° |
| 2026-04-24 21:56 | -42.14349 | -64.20213 | 14639 ft | 275 kts | 222° |
| 2026-04-24 21:56 | -42.15919 | -64.21731 | 14320 ft | 280 kts | 221° |
| 2026-04-24 21:56 | -42.17507 | -64.23268 | 14005 ft | 281 kts | 221° |
| 2026-04-24 21:56 | -42.19090 | -64.24800 | 13653 ft | 279 kts | 221° |
| 2026-04-24 21:57 | -42.20659 | -64.26320 | 13320 ft | 276 kts | 221° |
| 2026-04-24 21:57 | -42.22210 | -64.27825 | 12992 ft | 273 kts | 221° |
| 2026-04-24 21:57 | -42.23747 | -64.29315 | 12665 ft | 271 kts | 221° |
| 2026-04-24 21:57 | -42.25266 | -64.30790 | 12353 ft | 267 kts | 221° |
| 2026-04-24 21:58 | -42.26769 | -64.32249 | 12049 ft | 265 kts | 221° |
| 2026-04-24 21:58 | -42.28255 | -64.33693 | 11746 ft | 262 kts | 221° |
| 2026-04-24 21:58 | -42.29725 | -64.35122 | 11447 ft | 259 kts | 221° |
| 2026-04-24 21:58 | -42.31172 | -64.36530 | 11159 ft | 257 kts | 221° |
| 2026-04-24 21:59 | -42.32631 | -64.37950 | 10857 ft | 262 kts | 221° |
| 2026-04-24 21:59 | -42.34124 | -64.39404 | 10557 ft | 266 kts | 221° |
| 2026-04-24 21:59 | -42.35616 | -64.40857 | 10356 ft | 262 kts | 221° |
| 2026-04-24 21:59 | -42.37063 | -64.42267 | 10225 ft | 253 kts | 221° |
| 2026-04-24 22:00 | -42.38456 | -64.43625 | 10089 ft | 245 kts | 221° |
| 2026-04-24 22:00 | -42.39823 | -64.44960 | 9831 ft | 241 kts | 221° |
| 2026-04-24 22:00 | -42.41180 | -64.46284 | 9507 ft | 239 kts | 221° |
| 2026-04-24 22:00 | -42.42526 | -64.47599 | 9225 ft | 237 kts | 221° |
| 2026-04-24 22:01 | -42.43852 | -64.48895 | 8945 ft | 234 kts | 221° |
| 2026-04-24 22:01 | -42.45165 | -64.50179 | 8672 ft | 232 kts | 221° |
| 2026-04-24 22:01 | -42.46358 | -64.51601 | 8387 ft | 232 kts | 235° |
| 2026-04-24 22:01 | -42.47333 | -64.53352 | 8110 ft | 234 kts | 236° |
| 2026-04-24 22:02 | -42.48313 | -64.55122 | 7840 ft | 235 kts | 236° |
| 2026-04-24 22:02 | -42.49295 | -64.56905 | 7577 ft | 237 kts | 237° |
| 2026-04-24 22:02 | -42.50277 | -64.58693 | 7299 ft | 237 kts | 236° |
| 2026-04-24 22:02 | -42.51256 | -64.60480 | 7026 ft | 235 kts | 237° |
| 2026-04-24 22:03 | -42.52225 | -64.62250 | 6755 ft | 233 kts | 236° |
| 2026-04-24 22:03 | -42.53186 | -64.64008 | 6489 ft | 231 kts | 236° |
| 2026-04-24 22:03 | -42.54136 | -64.65747 | 6221 ft | 228 kts | 237° |
| 2026-04-24 22:03 | -42.55077 | -64.67469 | 5942 ft | 226 kts | 236° |
| 2026-04-24 22:04 | -42.56008 | -64.69173 | 5677 ft | 223 kts | 236° |
| 2026-04-24 22:04 | -42.56925 | -64.70854 | 5426 ft | 220 kts | 236° |
| 2026-04-24 22:04 | -42.57828 | -64.72512 | 5170 ft | 217 kts | 235° |
| 2026-04-24 22:04 | -42.58718 | -64.74144 | 4926 ft | 215 kts | 234° |
| 2026-04-24 22:05 | -42.59612 | -64.75786 | 4747 ft | 215 kts | 234° |
| 2026-04-24 22:05 | -42.60483 | -64.77390 | 4633 ft | 207 kts | 234° |
| 2026-04-24 22:05 | -42.61323 | -64.78934 | 4516 ft | 199 kts | 234° |
| 2026-04-24 22:05 | -42.62110 | -64.80433 | 4365 ft | 192 kts | 238° |
| 2026-04-24 22:06 | -42.62827 | -64.81981 | 4187 ft | 196 kts | 238° |
| 2026-04-24 22:06 | -42.63551 | -64.83540 | 4059 ft | 195 kts | 237° |
| 2026-04-24 22:06 | -42.64259 | -64.85059 | 3992 ft | 185 kts | 237° |
| 2026-04-24 22:06 | -42.64931 | -64.86501 | 3877 ft | 177 kts | 237° |
| 2026-04-24 22:07 | -42.65587 | -64.87904 | 3740 ft | 175 kts | 237° |
| 2026-04-24 22:07 | -42.66238 | -64.89296 | 3622 ft | 174 kts | 237° |
| 2026-04-24 22:07 | -42.66883 | -64.90687 | 3467 ft | 174 kts | 238° |
| 2026-04-24 22:07 | -42.67531 | -64.92087 | 3191 ft | 176 kts | 237° |
| 2026-04-24 22:08 | -42.68183 | -64.93495 | 2902 ft | 176 kts | 237° |
| 2026-04-24 22:08 | -42.68824 | -64.94883 | 2729 ft | 169 kts | 238° |
| 2026-04-24 22:08 | -42.69425 | -64.96184 | 2588 ft | 157 kts | 238° |
| 2026-04-24 22:08 | -42.69990 | -64.97404 | 2431 ft | 149 kts | 237° |
| 2026-04-24 22:09 | -42.70525 | -64.98561 | 2272 ft | 142 kts | 237° |
| 2026-04-24 22:09 | -42.71044 | -64.99686 | 2089 ft | 138 kts | 237° |
| 2026-04-24 22:09 | -42.71549 | -65.00779 | 1906 ft | 135 kts | 237° |
| 2026-04-24 22:09 | -42.72040 | -65.01845 | 1682 ft | 134 kts | 238° |
| 2026-04-24 22:10 | -42.72538 | -65.02917 | 1443 ft | 134 kts | 237° |
| 2026-04-24 22:10 | -42.73024 | -65.03973 | 1254 ft | 131 kts | 238° |
| 2026-04-24 22:10 | -42.73516 | -65.05038 | 1078 ft | 135 kts | 237° |
| 2026-04-24 22:10 | -42.74015 | -65.06129 | 937 ft | 135 kts | 237° |
| 2026-04-24 22:11 | -42.74507 | -65.07201 | 758 ft | 132 kts | 237° |
| 2026-04-24 22:11 | -42.74987 | -65.08238 | 581 ft | 126 kts | 236° |
| 2026-04-24 22:11 | -42.75443 | -65.09229 | 454 ft | 122 kts | 237° |
| 2026-04-24 22:11 | -42.75821 | -65.10056 | 434 ft | 73 kts | 238° |
| 2026-04-24 22:12 | -42.76027 | -65.10502 | 430 ft | 50 kts | 238° |
| 2026-04-24 22:12 | -42.76169 | -65.10811 | 436 ft | 14 kts | 238° |
| 2026-04-24 22:12 | -42.76213 | -65.10873 | 436 ft | 9 kts | 230° |
| 2026-04-24 22:12 | -42.76214 | -65.10891 | 430 ft | 1 kts | 297° |
| 2026-04-24 22:13 | -42.76207 | -65.10893 | 434 ft | 3 kts | 353° |
| 2026-04-24 22:13 | -42.76188 | -65.10869 | 438 ft | 9 kts | 61° |
| 2026-04-24 22:13 | -42.76132 | -65.10733 | 429 ft | 23 kts | 58° |
| 2026-04-24 22:13 | -42.76040 | -65.10531 | 432 ft | 25 kts | 58° |
| 2026-04-24 22:14 | -42.75943 | -65.10321 | 437 ft | 27 kts | 58° |
| 2026-04-24 22:14 | -42.75859 | -65.10139 | 431 ft | 20 kts | 58° |
| 2026-04-24 22:14 | -42.75789 | -65.09986 | 425 ft | 15 kts | 58° |
| 2026-04-24 22:14 | -42.75709 | -65.09916 | 434 ft | 14 kts | 334° |
| 2026-04-24 22:15 | -42.75665 | -65.09956 | 435 ft | 5 kts | 328° |
| 2026-04-24 22:15 | -42.75636 | -65.09980 | 439 ft | 5 kts | 328° |
| 2026-04-24 22:15 | -42.75613 | -65.10000 | 442 ft | 4 kts | 328° |
| 2026-04-24 22:15 | -42.75582 | -65.10027 | 442 ft | 6 kts | 321° |
| 2026-04-24 22:16 | -42.75569 | -65.10058 | 443 ft | 3 kts | 282° |
| 2026-04-24 22:16 | -42.75566 | -65.10070 | 433 ft | 0 kts | 305° |
| 2026-04-24 22:17 | -42.75556 | -65.10073 | 436 ft | 2 kts | 7° |
| 2026-04-24 22:17 | -42.75553 | -65.10068 | 431 ft | 0 kts | 54° |
| 2026-04-24 22:18 | -42.75545 | -65.10060 | 442 ft | 0 kts | 326° |
| 2026-04-24 22:21 | -42.75554 | -65.10021 | 433 ft | 0 kts | 21° |